createdAt,value
2023-05-05T00:00:39.996Z,30.2760
2023-05-05T00:01:42.582Z,31.6563
2023-05-05T00:02:45.289Z,34.5377
2023-05-05T00:03:47.955Z,32.2288
2023-05-05T00:04:50.440Z,33.2168
2023-05-05T00:05:53.019Z,33.3204
2023-05-05T00:06:55.620Z,32.1030
2023-05-05T00:07:58.224Z,31.0602
2023-05-05T00:09:00.845Z,33.5106
2023-05-05T00:10:03.435Z,33.0844
2023-05-05T00:11:06.045Z,32.6258
2023-05-05T00:12:08.632Z,33.3970
2023-05-05T00:13:11.387Z,33.7205
2023-05-05T00:14:13.857Z,35.6265
2023-05-05T00:15:16.464Z,34.8277
2023-05-05T00:16:19.040Z,37.4413
2023-05-05T00:17:21.695Z,37.3355
2023-05-05T00:18:24.256Z,37.2930
2023-05-05T00:19:26.881Z,40.1636
2023-05-05T00:20:29.557Z,41.6274
2023-05-05T00:21:32.094Z,41.4313
2023-05-05T00:22:34.679Z,46.0674
2023-05-05T00:23:37.308Z,44.7312
2023-05-05T00:24:39.900Z,45.7976
2023-05-05T00:25:42.531Z,44.6091
2023-05-05T00:26:45.107Z,43.8875
2023-05-05T00:27:47.739Z,45.5419
2023-05-05T00:28:50.341Z,43.3703
2023-05-05T00:29:52.946Z,41.6369
2023-05-05T00:30:55.533Z,43.4711
2023-05-05T00:31:58.179Z,43.6612
2023-05-05T00:33:00.778Z,43.2215
2023-05-05T00:34:03.369Z,43.4561
2023-05-05T00:35:05.942Z,41.1070
2023-05-05T00:36:08.580Z,43.1027
2023-05-05T00:37:11.167Z,38.6852
2023-05-05T00:38:13.791Z,40.9319
2023-05-05T00:39:16.359Z,41.9144
2023-05-05T00:40:18.989Z,42.9769
2023-05-05T00:41:21.619Z,44.2366
2023-05-05T00:42:24.189Z,40.5673
2023-05-05T00:43:26.771Z,39.6386
2023-05-05T00:44:29.406Z,40.1682
2023-05-05T00:45:31.984Z,44.7260
2023-05-05T00:46:34.616Z,42.0836
2023-05-05T00:47:37.240Z,40.5499
2023-05-05T00:48:39.803Z,39.5171
2023-05-05T00:49:42.377Z,39.6576
2023-05-05T00:50:45.027Z,39.6388
2023-05-05T00:51:47.592Z,40.4779
2023-05-05T00:52:50.219Z,41.3989
2023-05-05T00:53:52.800Z,41.7935
2023-05-05T00:54:55.437Z,37.3852
2023-05-05T00:55:58.001Z,43.0932
2023-05-05T00:57:00.632Z,40.1851
2023-05-05T00:58:03.219Z,39.5042
2023-05-05T00:59:05.843Z,41.0852
2023-05-05T01:00:08.790Z,39.0726
2023-05-05T01:01:11.168Z,38.0822
2023-05-05T01:02:13.618Z,38.6599
2023-05-05T01:03:16.303Z,43.2754
2023-05-05T01:04:18.825Z,40.5954
2023-05-05T01:05:21.438Z,38.7049
2023-05-05T01:06:24.026Z,40.9283
2023-05-05T01:07:26.661Z,39.7568
2023-05-05T01:08:29.243Z,37.0715
2023-05-05T01:09:31.859Z,38.2599
2023-05-05T01:10:34.429Z,37.7187
2023-05-05T01:11:37.047Z,39.7425
2023-05-05T01:12:39.650Z,39.4371
2023-05-05T01:13:42.254Z,39.3152
2023-05-05T01:14:44.826Z,37.1766
2023-05-05T01:15:47.470Z,36.9981
2023-05-05T01:16:50.035Z,37.5914
2023-05-05T01:17:52.751Z,36.4661
2023-05-05T01:18:55.263Z,36.5590
2023-05-05T01:19:57.865Z,38.7564
2023-05-05T01:21:00.481Z,39.3704
2023-05-05T01:22:03.067Z,37.1274
2023-05-05T01:23:05.659Z,35.7981
2023-05-05T01:24:08.313Z,35.9023
2023-05-05T01:25:10.867Z,36.3385
2023-05-05T01:26:14.276Z,37.6676
2023-05-05T01:27:16.073Z,37.8655
2023-05-05T01:28:18.693Z,35.8206
2023-05-05T01:29:21.312Z,35.5665
2023-05-05T01:30:23.907Z,35.8535
2023-05-05T01:31:26.507Z,36.5783
2023-05-05T01:32:29.213Z,37.0712
2023-05-05T01:33:31.678Z,35.3399
2023-05-05T01:34:34.320Z,35.2613
2023-05-05T01:35:36.880Z,34.9516
2023-05-05T01:36:39.519Z,34.2645
2023-05-05T01:37:42.095Z,34.7680
2023-05-05T01:38:44.717Z,34.5953
2023-05-05T01:39:47.305Z,35.1953
2023-05-05T01:40:49.950Z,32.8731
2023-05-05T01:41:52.508Z,35.5177
2023-05-05T01:42:55.130Z,33.0019
2023-05-05T01:45:31.978Z,31.3053
2023-05-05T01:46:34.520Z,32.2738
2023-05-05T01:47:37.168Z,34.5427
2023-05-05T01:48:41.761Z,35.7899
2023-05-05T01:49:42.351Z,32.7802
2023-05-05T01:50:44.932Z,32.8100
2023-05-05T01:51:47.850Z,34.5200
2023-05-05T01:52:50.169Z,34.0122
2023-05-05T01:53:52.767Z,33.0118
2023-05-05T01:54:55.358Z,33.9707
2023-05-05T01:55:57.993Z,33.5131
2023-05-05T01:57:00.568Z,32.5346
2023-05-05T01:58:03.289Z,31.4924
2023-05-05T01:59:05.752Z,31.5800
2023-05-05T02:00:08.657Z,33.0920
2023-05-05T02:01:11.091Z,36.7714
2023-05-05T02:02:13.617Z,35.1380
2023-05-05T02:03:16.345Z,32.9455
2023-05-05T02:04:18.801Z,34.5694
2023-05-05T02:05:21.385Z,35.6552
2023-05-05T02:06:24.011Z,35.6905
2023-05-05T02:07:26.594Z,36.3234
2023-05-05T02:08:29.223Z,36.3751
2023-05-05T02:09:31.798Z,33.4054
2023-05-05T02:10:34.437Z,29.4167
2023-05-05T02:11:37.016Z,35.1678
2023-05-05T02:12:39.696Z,39.5634
2023-05-05T02:13:42.277Z,37.0785
2023-05-05T02:14:44.867Z,34.5674
2023-05-05T02:15:47.433Z,33.1496
2023-05-05T02:16:50.052Z,36.2486
2023-05-05T02:17:52.676Z,37.0914
2023-05-05T02:18:55.256Z,37.0347
2023-05-05T02:19:57.833Z,39.4273
2023-05-05T02:21:00.561Z,38.3833
2023-05-05T02:23:42.086Z,36.5228
2023-05-05T02:24:44.674Z,39.9276
2023-05-05T02:25:47.302Z,42.5729
2023-05-05T02:26:49.891Z,41.9973
2023-05-05T02:27:52.524Z,41.6140
2023-05-05T02:28:55.104Z,41.9074
2023-05-05T02:29:57.859Z,40.7990
2023-05-05T02:31:00.350Z,40.6575
2023-05-05T02:32:02.944Z,40.9923
2023-05-05T02:33:05.602Z,40.8551
2023-05-05T02:34:08.132Z,37.2295
2023-05-05T02:35:10.709Z,38.7848
2023-05-05T02:36:13.550Z,40.0298
2023-05-05T02:37:15.920Z,41.9509
2023-05-05T02:38:18.542Z,42.5192
2023-05-05T02:39:21.130Z,37.8023
2023-05-05T02:40:23.751Z,40.3428
2023-05-05T02:41:26.324Z,42.8824
2023-05-05T02:42:28.959Z,43.3311
2023-05-05T02:43:31.565Z,42.7394
2023-05-05T02:44:34.178Z,43.4582
2023-05-05T02:45:36.749Z,43.7793
2023-05-05T02:46:39.403Z,41.7840
2023-05-05T02:47:41.986Z,41.1401
2023-05-05T02:50:04.355Z,40.7949
2023-05-05T02:51:06.924Z,42.2910
2023-05-05T02:52:09.563Z,40.1954
2023-05-05T02:53:12.242Z,42.4457
2023-05-05T02:54:14.796Z,39.5168
2023-05-05T02:57:10.864Z,37.2203
2023-05-05T02:58:13.437Z,42.9300
2023-05-05T02:59:16.428Z,41.5911
2023-05-05T03:00:18.651Z,40.3103
2023-05-05T03:01:21.317Z,44.0803
2023-05-05T03:02:23.905Z,45.5520
2023-05-05T03:03:26.510Z,42.5014
2023-05-05T03:04:29.095Z,39.6389
2023-05-05T03:05:31.674Z,44.5357
2023-05-05T03:06:34.308Z,39.4279
2023-05-05T03:07:36.888Z,40.6460
2023-05-05T03:08:39.500Z,40.4809
2023-05-05T03:09:42.086Z,40.8491
2023-05-05T03:10:44.718Z,39.8322
2023-05-05T03:11:47.298Z,39.9007
2023-05-05T03:12:49.933Z,38.8126
2023-05-05T03:13:52.495Z,38.4515
2023-05-05T03:14:55.161Z,39.3473
2023-05-05T03:15:57.734Z,39.6148
2023-05-05T03:17:00.319Z,39.4127
2023-05-05T03:18:02.987Z,35.8232
2023-05-05T03:19:05.520Z,37.4540
2023-05-05T03:20:08.353Z,39.0652
2023-05-05T03:21:10.706Z,37.5396
2023-05-05T03:24:06.764Z,34.2279
2023-05-05T03:25:09.396Z,39.2880
2023-05-05T03:26:12.000Z,39.1777
2023-05-05T03:27:14.606Z,39.1762
2023-05-05T03:28:17.192Z,38.7496
2023-05-05T03:29:19.830Z,39.9157
2023-05-05T03:30:22.404Z,40.4946
2023-05-05T03:31:25.047Z,42.3235
2023-05-05T03:32:27.622Z,39.1811
2023-05-05T03:33:30.235Z,41.4980
2023-05-05T03:34:32.819Z,40.5853
2023-05-05T03:35:35.442Z,41.2229
2023-05-05T03:36:38.037Z,43.8689
2023-05-05T03:37:40.658Z,42.7859
2023-05-05T03:38:43.220Z,41.9137
2023-05-05T03:39:45.853Z,44.9685
2023-05-05T03:40:48.430Z,42.9424
2023-05-05T03:41:51.061Z,44.3398
2023-05-05T03:42:53.680Z,40.7224
2023-05-05T03:43:56.280Z,40.6987
2023-05-05T03:44:58.854Z,43.9859
2023-05-05T03:46:01.510Z,42.2826
2023-05-05T03:47:04.049Z,42.6606
2023-05-05T03:48:06.738Z,39.5844
2023-05-05T03:49:09.269Z,40.9731
2023-05-05T03:50:11.896Z,41.3354
2023-05-05T03:51:14.467Z,46.4327
2023-05-05T03:52:17.087Z,42.9376
2023-05-05T03:53:19.667Z,43.4504
2023-05-05T03:54:22.309Z,43.3508
2023-05-05T03:55:24.893Z,41.3104
2023-05-05T03:56:27.507Z,43.2321
2023-05-05T03:57:30.077Z,43.7775
2023-05-05T03:58:32.725Z,41.1979
2023-05-05T04:00:45.446Z,37.1468
2023-05-05T04:01:48.017Z,42.3056
2023-05-05T04:02:50.730Z,41.5877
2023-05-05T04:03:53.321Z,42.4974
2023-05-05T04:04:55.926Z,43.3560
2023-05-05T04:05:58.450Z,42.5992
2023-05-05T04:07:01.070Z,43.1085
2023-05-05T04:08:03.662Z,41.0245
2023-05-05T04:10:40.467Z,38.1553
2023-05-05T04:11:43.247Z,40.4600
2023-05-05T04:12:45.692Z,40.7570
2023-05-05T04:13:48.322Z,39.3975
2023-05-05T04:14:50.898Z,40.8003
2023-05-05T04:15:53.574Z,38.9822
2023-05-05T04:16:56.111Z,40.6031
2023-05-05T04:17:58.819Z,41.9484
2023-05-05T04:19:01.329Z,39.5776
2023-05-05T04:20:03.946Z,41.0856
2023-05-05T04:21:06.563Z,42.2095
2023-05-05T04:22:09.212Z,40.0199
2023-05-05T04:23:11.736Z,40.4275
2023-05-05T04:24:14.362Z,42.1777
2023-05-05T04:25:16.945Z,40.1423
2023-05-05T04:26:19.578Z,44.0577
2023-05-05T04:27:22.141Z,40.8728
2023-05-05T04:28:24.784Z,41.4964
2023-05-05T04:29:27.365Z,43.8974
2023-05-05T04:30:29.986Z,45.1734
2023-05-05T04:31:32.610Z,41.3060
2023-05-05T04:32:35.287Z,44.2913
2023-05-05T04:33:37.789Z,42.2137
2023-05-05T04:34:40.412Z,42.8281
2023-05-05T04:35:42.985Z,41.9433
2023-05-05T04:36:45.711Z,42.6053
2023-05-05T04:37:48.190Z,42.9873
2023-05-05T04:38:50.864Z,42.3119
2023-05-05T04:39:53.412Z,41.4373
2023-05-05T04:40:56.028Z,41.3181
2023-05-05T04:41:58.602Z,42.1655
2023-05-05T04:43:01.241Z,42.7673
2023-05-05T04:44:03.805Z,40.4463
2023-05-05T04:45:06.833Z,43.1928
2023-05-05T04:46:09.058Z,43.7426
2023-05-05T04:47:13.261Z,41.3866
2023-05-05T04:48:14.549Z,40.3699
2023-05-05T04:49:16.849Z,42.6075
2023-05-05T04:50:19.425Z,42.0475
2023-05-05T04:51:22.054Z,40.6471
2023-05-05T04:54:08.472Z,37.6121
2023-05-05T04:55:11.056Z,42.7477
2023-05-05T04:56:13.673Z,44.0006
2023-05-05T04:57:16.264Z,43.1819
2023-05-05T04:58:18.892Z,41.3114
2023-05-05T04:59:21.493Z,41.9842
2023-05-05T05:00:24.112Z,43.2738
2023-05-05T05:01:26.720Z,41.1543
2023-05-05T05:02:29.361Z,41.8436
2023-05-05T05:03:32.070Z,40.7695
2023-05-05T05:04:34.512Z,41.5886
2023-05-05T05:05:37.207Z,41.8435
2023-05-05T05:06:39.701Z,38.4058
2023-05-05T05:07:42.274Z,38.8053
2023-05-05T05:08:44.892Z,43.5990
2023-05-05T05:09:47.480Z,44.0474
2023-05-05T05:10:50.093Z,43.8059
2023-05-05T05:11:52.711Z,41.0459
2023-05-05T05:12:55.358Z,40.5514
2023-05-05T05:13:57.875Z,39.6067
2023-05-05T05:15:00.517Z,42.5014
2023-05-05T05:16:03.091Z,41.1766
2023-05-05T05:17:05.694Z,41.5419
2023-05-05T05:18:08.325Z,42.7578
2023-05-05T05:19:10.896Z,42.8117
2023-05-05T05:20:13.473Z,43.0133
2023-05-05T05:21:16.358Z,42.7906
2023-05-05T05:22:18.679Z,42.9375
2023-05-05T05:23:21.302Z,41.5449
2023-05-05T05:24:23.864Z,43.3393
2023-05-05T05:25:26.493Z,42.6480
2023-05-05T05:26:29.068Z,43.0732
2023-05-05T05:27:31.717Z,42.6990
2023-05-05T05:28:34.333Z,41.6988
2023-05-05T05:29:36.900Z,43.0523
2023-05-05T05:30:39.490Z,40.8755
2023-05-05T05:31:42.169Z,41.0167
2023-05-05T05:32:44.710Z,38.1160
2023-05-05T05:33:47.297Z,40.1337
2023-05-05T05:34:49.868Z,44.4631
2023-05-05T05:35:52.775Z,39.9806
2023-05-05T05:36:55.091Z,39.6918
2023-05-05T05:37:57.699Z,41.4735
2023-05-05T05:39:00.265Z,42.2283
2023-05-05T05:40:02.897Z,39.9499
2023-05-05T05:41:05.463Z,42.7162
2023-05-05T05:42:08.071Z,40.6269
2023-05-05T05:43:10.655Z,38.9109
2023-05-05T05:44:13.292Z,39.0963
2023-05-05T05:45:16.166Z,42.0166
2023-05-05T05:46:18.486Z,40.7532
2023-05-05T05:47:21.035Z,39.3795
2023-05-05T05:48:23.675Z,38.6731
2023-05-05T05:49:26.248Z,37.4725
2023-05-05T05:50:28.870Z,39.1305
2023-05-05T05:51:31.446Z,39.5472
2023-05-05T05:52:34.055Z,37.6176
2023-05-05T05:53:36.649Z,39.4315
2023-05-05T05:54:39.253Z,37.1342
2023-05-05T05:55:41.880Z,40.2196
2023-05-05T05:56:44.460Z,36.2125
2023-05-05T05:57:47.023Z,40.7087
2023-05-05T05:59:54.890Z,37.6260
2023-05-05T06:00:57.508Z,38.2071
2023-05-05T06:02:00.123Z,41.4857
2023-05-05T06:03:02.813Z,39.2946
2023-05-05T06:04:05.341Z,36.5843
2023-05-05T06:05:07.922Z,37.8593
2023-05-05T06:06:10.479Z,37.7370
2023-05-05T06:07:13.100Z,39.3058
2023-05-05T06:08:15.975Z,39.1110
2023-05-05T06:09:18.322Z,41.0892
2023-05-05T06:10:27.981Z,35.9597
2023-05-05T06:11:23.515Z,34.8276
2023-05-05T06:12:26.088Z,37.8768
2023-05-05T06:13:28.721Z,38.1909
2023-05-05T06:14:31.274Z,39.8361
2023-05-05T06:15:33.916Z,40.9176
2023-05-05T06:16:36.478Z,40.2057
2023-05-05T06:17:39.127Z,38.9741
2023-05-05T06:18:41.704Z,37.8388
2023-05-05T06:19:44.295Z,43.7018
2023-05-05T06:20:46.857Z,49.8081
2023-05-05T06:21:49.479Z,46.0081
2023-05-05T06:22:52.085Z,46.7594
2023-05-05T06:23:54.699Z,47.9344
2023-05-05T06:24:57.250Z,49.8496
2023-05-05T06:25:59.867Z,55.0118
2023-05-05T06:27:02.446Z,59.0068
2023-05-05T06:28:05.128Z,68.3648
2023-05-05T06:29:07.621Z,75.4541
2023-05-05T06:30:10.502Z,84.0599
2023-05-05T06:31:12.877Z,95.6554
2023-05-05T06:32:15.438Z,93.7212
2023-05-05T06:33:18.013Z,85.1721
2023-05-05T06:34:20.628Z,79.3511
2023-05-05T06:35:23.203Z,72.8320
2023-05-05T06:36:25.876Z,68.5050
2023-05-05T06:37:28.372Z,66.4376
2023-05-05T06:38:30.989Z,65.9528
2023-05-05T06:39:33.554Z,67.6194
2023-05-05T06:40:36.175Z,68.5534
2023-05-05T06:41:38.782Z,64.8591
2023-05-05T06:42:41.370Z,62.7717
2023-05-05T06:43:43.950Z,59.6638
2023-05-05T06:44:46.545Z,62.8827
2023-05-05T06:45:49.350Z,61.5732
2023-05-05T06:46:51.773Z,77.7993
2023-05-05T06:47:54.328Z,104.7746
2023-05-05T06:48:56.905Z,93.3447
2023-05-05T06:49:59.474Z,63.4819
2023-05-05T06:51:02.927Z,59.5418
2023-05-05T06:52:04.661Z,54.5997
2023-05-05T06:53:07.293Z,52.0759
2023-05-05T06:54:09.841Z,48.2326
2023-05-05T06:55:12.479Z,46.3308
2023-05-05T06:56:15.017Z,49.7838
2023-05-05T06:57:17.641Z,48.0094
2023-05-05T06:58:20.209Z,50.0976
2023-05-05T06:59:23.109Z,45.1383
2023-05-05T07:00:25.389Z,43.6675
2023-05-05T07:01:28.067Z,44.4416
2023-05-05T07:02:30.574Z,44.1147
2023-05-05T07:03:33.190Z,45.2129
2023-05-05T07:04:35.741Z,45.2963
2023-05-05T07:05:38.365Z,46.5570
2023-05-05T07:06:40.931Z,48.7250
2023-05-05T07:07:43.532Z,49.6565
2023-05-05T07:08:46.100Z,48.7495
2023-05-05T07:09:48.706Z,52.4506
2023-05-05T07:10:51.281Z,49.3700
2023-05-05T07:11:53.887Z,51.7770
2023-05-05T07:12:56.601Z,52.4387
2023-05-05T07:13:59.071Z,51.7190
2023-05-05T07:15:09.304Z,55.2397
2023-05-05T07:16:04.299Z,53.8657
2023-05-05T07:17:06.802Z,54.6766
2023-05-05T07:18:09.914Z,56.0062
2023-05-05T07:19:11.990Z,53.4223
2023-05-05T07:20:14.602Z,54.7955
2023-05-05T07:21:17.175Z,55.3302
2023-05-05T07:22:19.813Z,56.9614
2023-05-05T07:23:22.334Z,55.4441
2023-05-05T07:24:24.952Z,54.5945
2023-05-05T07:25:27.515Z,54.2727
2023-05-05T07:26:30.150Z,54.5620
2023-05-05T07:27:32.703Z,54.3736
2023-05-05T07:28:35.322Z,54.7678
2023-05-05T07:29:37.878Z,48.5646
2023-05-05T07:30:40.498Z,46.0070
2023-05-05T07:31:43.087Z,43.3132
2023-05-05T07:32:45.720Z,42.8610
2023-05-05T07:33:48.213Z,47.2194
2023-05-05T07:34:50.844Z,50.2933
2023-05-05T07:35:53.400Z,43.7277
2023-05-05T07:36:56.003Z,47.3864
2023-05-05T07:37:58.568Z,51.3584
2023-05-05T07:39:01.177Z,49.5367
2023-05-05T07:40:03.746Z,38.7952
2023-05-05T07:41:06.362Z,38.5700
2023-05-05T07:42:08.909Z,41.4701
2023-05-05T07:43:11.518Z,39.5890
2023-05-05T07:44:14.090Z,37.0363
2023-05-05T07:45:17.193Z,38.5676
2023-05-05T07:46:19.402Z,39.4848
2023-05-05T07:47:22.028Z,40.0047
2023-05-05T07:48:24.436Z,37.1925
2023-05-05T07:49:27.033Z,36.7379
2023-05-05T07:50:29.893Z,37.6891
2023-05-05T07:51:33.953Z,40.6081
2023-05-05T07:52:46.630Z,42.2287
2023-05-05T07:53:37.392Z,36.4790
2023-05-05T07:54:39.950Z,42.7044
2023-05-05T07:55:42.553Z,38.4194
2023-05-05T07:56:45.117Z,37.8551
2023-05-05T07:59:41.018Z,32.6867
2023-05-05T08:00:43.632Z,38.7096
2023-05-05T08:01:46.277Z,42.9521
2023-05-05T08:02:48.900Z,39.1429
2023-05-05T08:03:51.469Z,51.2086
2023-05-05T08:04:53.992Z,41.4992
2023-05-05T08:05:56.556Z,40.5622
2023-05-05T08:06:59.167Z,37.7104
2023-05-05T08:09:02.339Z,31.8442
2023-05-05T08:10:04.929Z,39.0499
2023-05-05T08:11:07.515Z,35.1436
2023-05-05T08:12:10.088Z,34.0247
2023-05-05T08:13:12.819Z,36.7028
2023-05-05T08:14:15.284Z,39.9274
2023-05-05T08:15:17.882Z,38.4119
2023-05-05T08:16:20.537Z,36.4883
2023-05-05T08:17:23.205Z,37.8817
2023-05-05T08:18:25.629Z,37.9114
2023-05-05T08:19:29.491Z,36.5903
2023-05-05T08:20:30.820Z,33.5629
2023-05-05T08:21:33.440Z,32.7596
2023-05-05T08:22:35.982Z,35.9309
2023-05-05T08:23:38.600Z,35.0211
2023-05-05T08:24:41.159Z,34.7024
2023-05-05T08:25:43.797Z,37.5533
2023-05-05T08:26:46.365Z,36.8509
2023-05-05T08:27:48.943Z,33.0254
2023-05-05T08:28:51.505Z,38.3021
2023-05-05T08:29:54.119Z,39.1458
2023-05-05T08:30:56.673Z,36.9605
2023-05-05T08:31:59.326Z,36.1516
2023-05-05T08:33:02.094Z,37.0691
2023-05-05T08:34:04.474Z,35.1335
2023-05-05T08:35:07.705Z,37.7920
2023-05-05T08:36:09.642Z,35.6774
2023-05-05T08:37:12.219Z,36.5465
2023-05-05T08:38:14.814Z,40.6970
2023-05-05T08:39:17.583Z,37.5957
2023-05-05T08:40:19.983Z,40.0374
2023-05-05T08:41:22.559Z,38.8198
2023-05-05T08:42:36.374Z,37.4520
2023-05-05T08:43:27.710Z,35.9623
2023-05-05T08:44:30.361Z,35.9579
2023-05-05T08:46:38.068Z,31.3156
2023-05-05T08:47:40.686Z,36.4474
2023-05-05T08:48:43.282Z,35.7689
2023-05-05T08:49:45.812Z,37.8539
2023-05-05T08:50:48.415Z,39.3823
2023-05-05T08:51:50.959Z,35.1870
2023-05-05T08:52:53.622Z,37.2226
2023-05-05T08:53:56.152Z,40.5087
2023-05-05T08:54:58.733Z,38.5251
2023-05-05T08:56:01.299Z,38.4423
2023-05-05T08:57:03.932Z,35.2112
2023-05-05T08:58:06.482Z,31.2110
2023-05-05T08:59:09.092Z,28.7083
2023-05-05T09:00:11.647Z,29.5158
2023-05-05T09:01:14.607Z,31.5362
2023-05-05T09:02:16.910Z,30.1015
2023-05-05T09:03:19.482Z,34.5026
2023-05-05T09:04:22.089Z,33.2842
2023-05-05T09:05:24.620Z,33.8417
2023-05-05T09:06:27.171Z,30.6231
2023-05-05T09:07:29.789Z,34.3665
2023-05-05T09:08:32.360Z,38.0388
2023-05-05T09:09:34.962Z,38.9830
2023-05-05T09:10:37.526Z,36.9075
2023-05-05T09:11:40.123Z,33.9239
2023-05-05T09:12:42.731Z,33.7390
2023-05-05T09:13:45.284Z,31.8356
2023-05-05T09:14:47.854Z,35.2144
2023-05-05T09:15:50.464Z,36.9605
2023-05-05T09:16:53.061Z,37.5290
2023-05-05T09:17:55.673Z,38.5885
2023-05-05T09:18:58.204Z,36.1087
2023-05-05T09:20:00.857Z,37.5402
2023-05-05T09:21:03.381Z,34.5174
2023-05-05T09:22:06.001Z,33.8075
2023-05-05T09:23:08.579Z,36.8488
2023-05-05T09:24:11.176Z,35.6116
2023-05-05T09:25:13.730Z,38.1771
2023-05-05T09:26:16.360Z,37.5215
2023-05-05T09:27:19.473Z,37.0558
2023-05-05T09:28:21.533Z,33.8107
2023-05-05T09:29:24.073Z,34.4095
2023-05-05T09:30:26.687Z,36.3234
2023-05-05T09:31:29.314Z,36.6721
2023-05-05T09:32:31.844Z,32.1138
2023-05-05T09:33:34.409Z,32.4838
2023-05-05T09:34:37.029Z,30.7900
2023-05-05T09:35:39.684Z,34.1741
2023-05-05T09:36:42.264Z,38.8985
2023-05-05T09:37:44.760Z,37.5340
2023-05-05T09:38:47.357Z,35.3023
2023-05-05T09:39:49.926Z,34.3191
2023-05-05T09:40:52.527Z,32.8198
2023-05-05T09:41:55.093Z,31.1928
2023-05-05T09:42:57.698Z,34.0607
2023-05-05T09:44:00.257Z,35.0711
2023-05-05T09:45:02.868Z,34.8687
2023-05-05T09:46:05.459Z,41.2099
2023-05-05T09:47:18.098Z,38.2652
2023-05-05T09:48:10.621Z,38.2175
2023-05-05T09:49:13.219Z,35.1654
2023-05-05T09:50:15.777Z,34.8675
2023-05-05T09:51:18.574Z,34.0436
2023-05-05T09:52:20.949Z,32.2246
2023-05-05T09:53:23.559Z,32.9673
2023-05-05T09:54:26.129Z,31.4295
2023-05-05T09:55:28.720Z,34.0598
2023-05-05T09:56:31.284Z,30.1235
2023-05-05T09:57:33.902Z,32.0742
2023-05-05T09:58:36.568Z,33.2171
2023-05-05T09:59:39.074Z,32.8955
2023-05-05T10:00:41.629Z,32.4431
2023-05-05T10:01:44.267Z,34.1913
2023-05-05T10:02:46.834Z,32.6008
2023-05-05T10:03:49.411Z,33.9367
2023-05-05T10:04:52.075Z,33.0954
2023-05-05T10:05:54.591Z,31.5852
2023-05-05T10:06:57.266Z,37.2724
2023-05-05T10:07:59.746Z,33.4425
2023-05-05T10:09:02.311Z,32.4880
2023-05-05T10:10:05.133Z,34.6424
2023-05-05T10:11:07.493Z,37.5242
2023-05-05T10:12:10.102Z,38.4071
2023-05-05T10:13:12.755Z,37.1456
2023-05-05T10:14:15.255Z,36.6472
2023-05-05T10:15:17.823Z,34.6833
2023-05-05T10:16:20.494Z,32.9923
2023-05-05T10:17:22.984Z,36.0658
2023-05-05T10:18:25.730Z,35.8779
2023-05-05T10:19:28.137Z,36.9154
2023-05-05T10:20:30.750Z,37.4579
2023-05-05T10:21:33.304Z,35.7876
2023-05-05T10:22:35.978Z,39.3368
2023-05-05T10:23:38.468Z,35.8233
2023-05-05T10:24:41.074Z,37.0934
2023-05-05T10:26:39.582Z,33.0719
2023-05-05T10:27:42.560Z,35.3812
2023-05-05T10:28:44.567Z,37.1604
2023-05-05T10:29:47.121Z,36.4743
2023-05-05T10:30:49.727Z,34.0978
2023-05-05T10:31:52.317Z,34.1543
2023-05-05T10:33:07.961Z,34.8871
2023-05-05T10:33:57.480Z,33.4996
2023-05-05T10:35:00.058Z,32.9876
2023-05-05T10:36:03.681Z,31.5955
2023-05-05T10:37:07.281Z,33.2782
2023-05-05T10:38:07.849Z,35.0299
2023-05-05T10:39:12.445Z,34.7272
2023-05-05T10:40:12.945Z,33.7727
2023-05-05T10:41:15.557Z,36.1618
2023-05-05T10:42:18.693Z,32.7091
2023-05-05T10:43:20.710Z,30.5162
2023-05-05T10:44:23.261Z,33.4575
2023-05-05T10:45:27.996Z,37.3917
2023-05-05T10:46:28.475Z,33.2065
2023-05-05T10:47:33.084Z,30.4747
2023-05-05T10:48:33.626Z,33.3532
2023-05-05T10:49:36.204Z,29.9428
2023-05-05T10:50:38.771Z,29.0433
2023-05-05T10:51:41.462Z,32.5201
2023-05-05T10:52:43.959Z,33.0206
2023-05-05T10:53:46.667Z,31.8543
2023-05-05T10:54:49.117Z,36.7839
2023-05-05T10:55:51.719Z,34.2359
2023-05-05T10:56:54.289Z,34.7215
2023-05-05T10:57:56.894Z,34.9630
2023-05-05T10:59:00.773Z,30.8973
2023-05-05T11:00:02.070Z,31.3594
2023-05-05T11:01:04.669Z,37.0446
2023-05-05T11:02:07.238Z,35.1604
2023-05-05T11:03:09.818Z,33.7110
2023-05-05T11:04:12.416Z,35.4512
2023-05-05T11:05:15.007Z,33.6403
2023-05-05T11:06:17.545Z,34.8533
2023-05-05T11:07:20.299Z,35.4891
2023-05-05T11:08:22.721Z,33.2123
2023-05-05T11:09:25.398Z,34.7585
2023-05-05T11:10:27.880Z,30.7918
2023-05-05T11:11:30.444Z,32.3378
2023-05-05T11:12:33.109Z,36.3155
2023-05-05T11:13:35.619Z,35.3973
2023-05-05T11:14:38.221Z,31.9202
2023-05-05T11:15:40.792Z,34.7928
2023-05-05T11:16:43.438Z,37.7525
2023-05-05T11:17:46.030Z,36.5216
2023-05-05T11:18:48.577Z,35.3572
2023-05-05T11:19:51.140Z,36.6402
2023-05-05T11:20:53.741Z,40.3598
2023-05-05T11:21:56.303Z,38.6100
2023-05-05T11:22:58.922Z,37.1243
2023-05-05T11:24:01.476Z,37.2662
2023-05-05T11:25:04.191Z,34.8826
2023-05-05T11:26:06.643Z,36.3107
2023-05-05T11:27:09.245Z,35.4623
2023-05-05T11:28:11.842Z,36.9487
2023-05-05T11:29:14.831Z,36.2064
2023-05-05T11:30:16.960Z,39.3041
2023-05-05T11:31:19.946Z,39.6294
2023-05-05T11:32:22.129Z,39.6498
2023-05-05T11:33:24.746Z,39.8888
2023-05-05T11:34:27.305Z,37.0952
2023-05-05T11:35:29.901Z,37.3999
2023-05-05T11:36:32.460Z,35.4967
2023-05-05T11:37:35.061Z,36.1979
2023-05-05T11:38:37.623Z,34.9314
2023-05-05T11:39:40.222Z,35.3342
2023-05-05T11:40:42.853Z,33.3988
2023-05-05T11:41:45.385Z,33.1164
2023-05-05T11:42:47.935Z,34.7232
2023-05-05T11:43:50.542Z,37.3332
2023-05-05T11:44:53.105Z,36.7364
2023-05-05T11:45:55.754Z,35.0289
2023-05-05T11:47:01.068Z,32.5139
2023-05-05T11:48:00.911Z,31.9932
2023-05-05T11:49:03.432Z,33.9882
2023-05-05T11:50:06.170Z,33.7411
2023-05-05T11:51:08.577Z,33.6031
2023-05-05T11:52:11.181Z,33.3575
2023-05-05T11:53:13.723Z,32.9260
2023-05-05T11:54:16.333Z,31.1549
2023-05-05T11:55:18.892Z,30.8436
2023-05-05T11:56:21.559Z,32.9638
2023-05-05T11:57:24.044Z,32.3739
2023-05-05T11:58:26.650Z,28.4482
2023-05-05T11:59:29.475Z,31.2243
2023-05-05T12:00:31.815Z,32.6836
2023-05-05T12:01:34.377Z,31.9769
2023-05-05T12:02:37.034Z,31.0082
2023-05-05T12:03:39.609Z,30.3226
2023-05-05T12:04:42.171Z,30.1322
2023-05-05T12:05:44.671Z,32.6653
2023-05-05T12:06:47.281Z,28.8521
2023-05-05T12:07:49.831Z,29.5924
2023-05-05T12:08:52.446Z,32.7765
2023-05-05T12:09:55.005Z,32.0388
2023-05-05T12:10:57.592Z,32.1169
2023-05-05T12:12:00.218Z,30.5777
2023-05-05T12:13:02.837Z,32.7921
2023-05-05T12:14:05.306Z,34.1964
2023-05-05T12:15:07.934Z,33.8657
2023-05-05T12:16:10.503Z,32.8325
2023-05-05T12:17:13.061Z,35.4165
2023-05-05T12:18:15.616Z,32.6305
2023-05-05T12:19:18.228Z,31.0685
2023-05-05T12:20:20.827Z,33.9376
2023-05-05T12:21:23.383Z,30.6198
2023-05-05T12:22:25.950Z,33.3685
2023-05-05T12:23:28.540Z,36.5715
2023-05-05T12:24:31.094Z,34.7713
2023-05-05T12:25:33.709Z,34.0448
2023-05-05T12:26:36.248Z,34.4556
2023-05-05T12:27:39.021Z,37.3599
2023-05-05T12:28:41.411Z,37.7768
2023-05-05T12:29:44.012Z,34.8362
2023-05-05T12:30:46.615Z,37.2796
2023-05-05T12:31:49.186Z,34.0020
2023-05-05T12:32:51.753Z,35.7698
2023-05-05T12:33:54.331Z,34.9679
2023-05-05T12:34:56.916Z,35.4523
2023-05-05T12:35:59.494Z,33.8261
2023-05-05T12:37:02.035Z,33.2535
2023-05-05T12:38:04.646Z,34.5171
2023-05-05T12:39:07.205Z,37.5475
2023-05-05T12:40:10.053Z,34.7667
2023-05-05T12:41:12.354Z,37.9634
2023-05-05T12:42:14.956Z,35.7884
2023-05-05T12:43:17.510Z,34.3396
2023-05-05T12:44:20.112Z,35.4192
2023-05-05T12:45:22.716Z,37.0643
2023-05-05T12:46:25.374Z,37.5871
2023-05-05T12:47:27.818Z,36.8752
2023-05-05T12:48:30.453Z,31.4305
2023-05-05T12:49:32.965Z,32.6370
2023-05-05T12:50:35.583Z,33.0320
2023-05-05T12:51:38.133Z,33.0981
2023-05-05T12:52:40.740Z,33.3313
2023-05-05T12:53:43.301Z,30.4298
2023-05-05T12:54:45.895Z,31.5098
2023-05-05T12:55:48.443Z,32.8244